Map

Track Data

SID SEASON NUMBER BASIN SUBBASIN NAME ISO_TIME NATURE LAT LON WMO_WIND WMO_PRES WMO_AGENCY TRACK_TYPE DIST2LAND LANDFALL IFLAG USA_AGENCY USA_ATCF_ID USA_LAT USA_LON USA_RECORD USA_STATUS USA_WIND USA_PRES USA_SSHS USA_R34_NE USA_R34_SE USA_R34_SW USA_R34_NW USA_R50_NE USA_R50_SE USA_R50_SW USA_R50_NW USA_R64_NE USA_R64_SE USA_R64_SW USA_R64_NW USA_POCI USA_ROCI USA_RMW USA_EYE TOKYO_LAT TOKYO_LON TOKYO_GRADE TOKYO_WIND TOKYO_PRES TOKYO_R50_DIR TOKYO_R50_LONG TOKYO_R50_SHORT TOKYO_R30_DIR TOKYO_R30_LONG TOKYO_R30_SHORT TOKYO_LAND CMA_LAT CMA_LON CMA_CAT CMA_WIND CMA_PRES HKO_LAT HKO_LON HKO_CAT HKO_WIND HKO_PRES NEWDELHI_LAT NEWDELHI_LON NEWDELHI_GRADE NEWDELHI_WIND NEWDELHI_PRES NEWDELHI_CI NEWDELHI_DP NEWDELHI_POCI REUNION_LAT REUNION_LON REUNION_TYPE REUNION_WIND REUNION_PRES REUNION_TNUM REUNION_CI REUNION_RMW REUNION_R34_NE REUNION_R34_SE REUNION_R34_SW REUNION_R34_NW REUNION_R50_NE REUNION_R50_SE REUNION_R50_SW REUNION_R50_NW REUNION_R64_NE REUNION_R64_SE REUNION_R64_SW REUNION_R64_NW BOM_LAT BOM_LON BOM_TYPE BOM_WIND BOM_PRES BOM_TNUM BOM_CI BOM_RMW BOM_R34_NE BOM_R34_SE BOM_R34_SW BOM_R34_NW BOM_R50_NE BOM_R50_SE BOM_R50_SW BOM_R50_NW BOM_R64_NE BOM_R64_SE BOM_R64_SW BOM_R64_NW BOM_ROCI BOM_POCI BOM_EYE BOM_POS_METHOD BOM_PRES_METHOD NADI_LAT NADI_LON NADI_CAT NADI_WIND NADI_PRES WELLINGTON_LAT WELLINGTON_LON WELLINGTON_WIND WELLINGTON_PRES DS824_LAT DS824_LON DS824_STAGE DS824_WIND DS824_PRES TD9636_LAT TD9636_LON TD9636_STAGE TD9636_WIND TD9636_PRES TD9635_LAT TD9635_LON TD9635_WIND TD9635_PRES TD9635_ROCI NEUMANN_LAT NEUMANN_LON NEUMANN_CLASS NEUMANN_WIND NEUMANN_PRES MLC_LAT MLC_LON MLC_CLASS MLC_WIND MLC_PRES USA_GUST BOM_GUST BOM_GUST_PER REUNION_GUST REUNION_GUST_PER USA_SEAHGT USA_SEARAD_NE USA_SEARAD_SE USA_SEARAD_SW USA_SEARAD_NW STORM_SPEED STORM_DIR
1923227N21089 1923 51 NI BB NOT_NAMED 1923-08-15 00:00:00 TS 21.2000 89.0000 main 44 22 _________O____ -1 21.2000 89.0000 TC 30 4 346
1923227N21089 1923 51 NI BB NOT_NAMED 1923-08-15 03:00:00 TS 21.4067 88.9367 main 22 0 _________PO___ -1 21.5100 88.9051 TC 30 21.2000 89.0000 1 5 343
1923227N21089 1923 51 NI BB NOT_NAMED 1923-08-15 06:00:00 TS 21.6743 88.8462 main 0 0 _________OP___ -1 21.8000 88.8000 TC 30 21.4858 88.9155 1 6 340
1923227N21089 1923 51 NI BB NOT_NAMED 1923-08-15 09:00:00 TS 21.9331 88.7334 main 10 0 _________PP___ -1 22.0575 88.6724 TC 30 21.7673 88.8148 1 6 334
1923227N21089 1923 51 NI BB NOT_NAMED 1923-08-15 12:00:00 TS 22.1701 88.5908 main 0 0 _________OP___ -1 22.3000 88.5000 TC 30 22.0401 88.6817 1 6 327
1923227N21089 1923 51 NI BB NOT_NAMED 1923-08-15 15:00:00 TS 22.4325 88.3863 main 0 0 _________PO___ -1 22.5650 88.2725 TC 30 22.3000 88.5000 1 7 320
1923227N21089 1923 51 NI BB NOT_NAMED 1923-08-15 18:00:00 TS 22.6710 88.1302 main 0 0 _________OP___ -1 22.8000 88.0000 TC 30 22.5421 88.2603 1 7 311
1923227N21089 1923 51 NI BB NOT_NAMED 1923-08-15 21:00:00 TS 22.8664 87.8365 main 0 0 _________PP___ -1 22.9726 87.6925 TC 30 22.7603 87.9805 1 6 303
1923227N21089 1923 51 NI BB NOT_NAMED 1923-08-16 00:00:00 TS 23.0242 87.5427 main 0 0 _________OP___ -1 23.1000 87.4000 TC 30 22.9483 87.6853 1 6 300
1923227N21089 1923 51 NI BB NOT_NAMED 1923-08-16 03:00:00 TS 23.1574 87.2962 main 0 0 _________PO___ -1 23.2149 87.1924 TC 30 23.1000 87.4000 1 5 299
1923227N21089 1923 51 NI BB NOT_NAMED 1923-08-16 06:00:00 TS 23.2594 87.0781 main 0 0 _________OP___ -1 23.3000 87.0000 TC 30 23.2189 87.1562 1 5 292
1923227N21089 1923 51 NI BB NOT_NAMED 1923-08-16 09:00:00 TS 23.3299 86.8385 main 0 0 _________PP___ -1 23.3575 86.7500 TC 30 23.3023 86.9271 1 5 285
1923227N21089 1923 51 NI BB NOT_NAMED 1923-08-16 12:00:00 TS 23.3798 86.6047 main 0 0 _________OP___ -1 23.4000 86.5000 TC 30 23.3595 86.7094 1 4 284
1923227N21089 1923 51 NI BB NOT_NAMED 1923-08-16 15:00:00 TS 23.4287 86.3963 main 0 0 _________PO___ -1 23.4574 86.2925 TC 30 23.4000 86.5000 1 4 284
1923227N21089 1923 51 NI BB NOT_NAMED 1923-08-16 18:00:00 TS 23.4717 86.1903 main 0 0 _________OP___ -1 23.5000 86.1000 TC 30 23.4434 86.2805 1 4 279
1923227N21089 1923 51 NI BB NOT_NAMED 1923-08-16 21:00:00 TS 23.4900 85.9812 main 0 0 _________PP___ -1 23.5075 85.8925 TC 30 23.4725 86.0699 1 4 274
1923227N21089 1923 51 NI BB NOT_NAMED 1923-08-17 00:00:00 TS 23.4952 85.7872 main 0 0 _________OP___ -1 23.5000 85.7000 TC 30 23.4903 85.8743 1 3 272
1923227N21089 1923 51 NI BB NOT_NAMED 1923-08-17 03:00:00 TS 23.5000 85.6175 main 0 0 _________PO___ -1 23.5000 85.5350 TC 30 23.5000 85.7000 1 3 271
1923227N21089 1923 51 NI BB NOT_NAMED 1923-08-17 06:00:00 TS 23.4995 85.4787 main 0 0 _________OP___ -1 23.5000 85.4000 TC 30 23.4989 85.5574 1 2 268
1923227N21089 1923 51 NI BB NOT_NAMED 1923-08-17 09:00:00 TS 23.4924 85.3674 main 0 0 _________PP___ -1 23.4925 85.3000 TC 30 23.4923 85.4348 1 2 269
1923227N21089 1923 51 NI BB NOT_NAMED 1923-08-17 12:00:00 TS 23.4948 85.2599 main 0 0 _________OP___ -1 23.5000 85.2000 TC 30 23.4895 85.3199 1 2 277
1923227N21089 1923 51 NI BB NOT_NAMED 1923-08-17 15:00:00 TS 23.5213 85.1288 main 0 0 _________PO___ -1 23.5425 85.0575 TC 30 23.5000 85.2000 1 3 285
1923227N21089 1923 51 NI BB NOT_NAMED 1923-08-17 18:00:00 TS 23.5603 84.9945 main 0 0 _________OP___ -1 23.6000 84.9000 TC 30 23.5305 85.0654 1 3 289
1923227N21089 1923 51 NI BB NOT_NAMED 1923-08-17 21:00:00 TS 23.6076 84.8496 main 0 0 _________PP___ -1 23.6525 84.7475 TC 30 23.5777 84.9177 1 3 290
1923227N21089 1923 51 NI BB NOT_NAMED 1923-08-18 00:00:00 TS 23.6574 84.7074 main 0 0 _________OP___ -1 23.7000 84.6000 TC 30 23.6361 84.7611 1 2 292
1923227N21089 1923 51 NI BB NOT_NAMED 1923-08-18 03:00:00 NR 23.7000 84.6000 main 0 __________O___ -1 TC 23.7000 84.6000 1 2 294

About IBTrACS Database

This database is a web-friendly format of International Best Track Archive for Climate Stewardship (IBTrACS), a global best track data archive curated by NOAA dating back to 1842.

Updated: 2021-11-26